Terminal Aerodrome Forecast
Issued by NWS

Home | Current Version | Previous Version | Text Only | Print | Product List | Glossary On
Versions: 1 2 3 4 5 6 7 8 9 10 11 12 13 14 15 16 17 18 19 20 21 22 23
000
FTUS45 KRIW 051720
TAFPNA
TAF
KPNA 051720Z 0518/0618 31009KT P6SM -SHRA OVC060
     FM060400 13007KT 4SM -SHRA BR SCT008 OVC018
     FM061600 VRB06KT 5SM -SHRA BR SCT012 OVC025
      AMD LTD TO CLD VIS AND WIND=

USA.gov is the U.S. government's official web portal to all federal, state and local government web resources and services.